sensor_id;sensor_type;location;lat;lon;timestamp;pressure;altitude;pressure_sealevel;temperature;humidity
13456;BME280;6800;50.940;6.940;2023-03-01T00:03:12;102187.31;;;10.32;35.83
13456;BME280;6800;50.940;6.940;2023-03-01T00:07:14;102190.03;;;9.71;36.58
13456;BME280;6800;50.940;6.940;2023-03-01T00:11:17;102202.69;;;10.41;35.85
13456;BME280;6800;50.940;6.940;2023-03-01T00:15:19;102196.72;;;10.64;34.85
13456;BME280;6800;50.940;6.940;2023-03-01T00:19:21;102200.81;;;10.45;34.42
13456;BME280;6800;50.940;6.940;2023-03-01T00:23:23;102202.19;;;10.82;34.19
13456;BME280;6800;50.940;6.940;2023-03-01T00:27:28;102197.25;;;11.24;33.73
13456;BME280;6800;50.940;6.940;2023-03-01T00:31:31;102193.75;;;10.74;34.05
13456;BME280;6800;50.940;6.940;2023-03-01T00:35:33;102193.72;;;10.22;35.07
13456;BME280;6800;50.940;6.940;2023-03-01T00:39:34;102194.13;;;9.78;35.70
13456;BME280;6800;50.940;6.940;2023-03-01T00:43:36;102192.50;;;9.75;36.00
13456;BME280;6800;50.940;6.940;2023-03-01T00:47:38;102187.84;;;10.43;34.38
13456;BME280;6800;50.940;6.940;2023-03-01T00:51:40;102186.47;;;10.84;33.76
13456;BME280;6800;50.940;6.940;2023-03-01T00:55:42;102181.81;;;10.13;34.89
13456;BME280;6800;50.940;6.940;2023-03-01T00:59:44;102177.47;;;10.40;34.35
13456;BME280;6800;50.940;6.940;2023-03-01T01:03:51;102178.00;;;10.51;33.88
13456;BME280;6800;50.940;6.940;2023-03-01T01:07:55;102180.44;;;10.30;34.34
13456;BME280;6800;50.940;6.940;2023-03-01T01:11:56;102181.16;;;9.76;34.98
13456;BME280;6800;50.940;6.940;2023-03-01T01:16:01;102171.34;;;9.84;35.38
13456;BME280;6800;50.940;6.940;2023-03-01T01:20:03;102156.88;;;10.31;34.26
13456;BME280;6800;50.940;6.940;2023-03-01T01:24:05;102158.59;;;10.58;33.88
13456;BME280;6800;50.940;6.940;2023-03-01T01:28:06;102146.31;;;10.36;34.07
13456;BME280;6800;50.940;6.940;2023-03-01T01:32:08;102147.28;;;10.84;33.63
13456;BME280;6800;50.940;6.940;2023-03-01T01:36:10;102142.53;;;10.44;34.06
13456;BME280;6800;50.940;6.940;2023-03-01T01:40:12;102130.19;;;10.23;34.48
13456;BME280;6800;50.940;6.940;2023-03-01T01:44:18;102126.66;;;10.52;34.18
13456;BME280;6800;50.940;6.940;2023-03-01T01:48:23;102133.94;;;10.14;34.79
13456;BME280;6800;50.940;6.940;2023-03-01T01:52:27;102116.13;;;9.99;34.46
13456;BME280;6800;50.940;6.940;2023-03-01T01:56:32;102108.66;;;10.43;34.34
13456;BME280;6800;50.940;6.940;2023-03-01T02:00:34;102110.88;;;9.73;34.92
13456;BME280;6800;50.940;6.940;2023-03-01T02:04:35;102109.03;;;9.77;35.13
13456;BME280;6800;50.940;6.940;2023-03-01T02:08:40;102099.13;;;9.59;34.91
13456;BME280;6800;50.940;6.940;2023-03-01T02:12:42;102100.81;;;9.89;34.31
13456;BME280;6800;50.940;6.940;2023-03-01T02:16:44;102096.19;;;9.71;35.60
13456;BME280;6800;50.940;6.940;2023-03-01T02:29:20;102098.13;;;10.19;34.65
13456;BME280;6800;50.940;6.940;2023-03-01T02:33:21;102100.19;;;9.81;35.78
13456;BME280;6800;50.940;6.940;2023-03-01T02:37:24;102098.81;;;9.41;35.89
13456;BME280;6800;50.940;6.940;2023-03-01T02:41:28;102106.81;;;9.34;36.14
13456;BME280;6800;50.940;6.940;2023-03-01T02:45:31;102099.09;;;9.60;35.45
13456;BME280;6800;50.940;6.940;2023-03-01T02:49:35;102101.91;;;9.23;36.06
13456;BME280;6800;50.940;6.940;2023-03-01T02:54:04;102090.38;;;9.89;34.58
13456;BME280;6800;50.940;6.940;2023-03-01T02:58:08;102092.34;;;9.53;35.89
13456;BME280;6800;50.940;6.940;2023-03-01T03:02:29;102090.69;;;9.21;36.09
13456;BME280;6800;50.940;6.940;2023-03-01T03:06:39;102090.03;;;9.73;35.28
13456;BME280;6800;50.940;6.940;2023-03-01T03:10:42;102081.84;;;9.56;35.88
13456;BME280;6800;50.940;6.940;2023-03-01T03:14:44;102073.84;;;9.90;34.96
13456;BME280;6800;50.940;6.940;2023-03-01T03:18:45;102072.09;;;9.63;35.83
13456;BME280;6800;50.940;6.940;2023-03-01T03:22:49;102069.44;;;9.64;35.17
13456;BME280;6800;50.940;6.940;2023-03-01T03:26:51;102072.63;;;9.15;36.96
13456;BME280;6800;50.940;6.940;2023-03-01T03:30:52;102063.06;;;8.53;37.75
13456;BME280;6800;50.940;6.940;2023-03-01T03:34:54;102068.25;;;8.54;36.67
13456;BME280;6800;50.940;6.940;2023-03-01T03:38:55;102082.88;;;7.88;38.55
13456;BME280;6800;50.940;6.940;2023-03-01T03:42:56;102078.44;;;8.62;38.14
13456;BME280;6800;50.940;6.940;2023-03-01T03:46:58;102072.22;;;7.99;38.93
13456;BME280;6800;50.940;6.940;2023-03-01T03:50:59;102070.47;;;9.29;35.77
13456;BME280;6800;50.940;6.940;2023-03-01T03:55:00;102055.97;;;9.21;36.96
13456;BME280;6800;50.940;6.940;2023-03-01T03:59:02;102058.91;;;8.80;36.88
13456;BME280;6800;50.940;6.940;2023-03-01T04:03:04;102059.72;;;8.82;37.74
13456;BME280;6800;50.940;6.940;2023-03-01T04:07:05;102046.31;;;9.54;35.74
13456;BME280;6800;50.940;6.940;2023-03-01T04:11:06;102042.81;;;7.97;39.07
13456;BME280;6800;50.940;6.940;2023-03-01T04:15:27;102036.28;;;8.80;37.63
13456;BME280;6800;50.940;6.940;2023-03-01T04:19:28;102046.75;;;8.48;37.17
13456;BME280;6800;50.940;6.940;2023-03-01T04:23:29;102040.47;;;9.46;35.66
13456;BME280;6800;50.940;6.940;2023-03-01T04:27:34;102038.63;;;9.77;35.43
13456;BME280;6800;50.940;6.940;2023-03-01T04:31:36;102030.88;;;9.75;35.52
13456;BME280;6800;50.940;6.940;2023-03-01T04:35:37;102031.22;;;9.63;35.42
13456;BME280;6800;50.940;6.940;2023-03-01T04:39:40;102040.84;;;9.04;36.60
13456;BME280;6800;50.940;6.940;2023-03-01T04:43:46;102039.28;;;7.99;38.74
13456;BME280;6800;50.940;6.940;2023-03-01T04:47:47;102035.19;;;7.89;38.96
13456;BME280;6800;50.940;6.940;2023-03-01T04:51:49;102030.44;;;8.72;37.24
13456;BME280;6800;50.940;6.940;2023-03-01T04:55:51;102029.63;;;8.39;38.25
13456;BME280;6800;50.940;6.940;2023-03-01T04:59:52;102032.25;;;7.66;39.51
13456;BME280;6800;50.940;6.940;2023-03-01T05:03:54;102029.16;;;8.88;37.83
13456;BME280;6800;50.940;6.940;2023-03-01T05:07:58;102025.50;;;9.24;36.43
13456;BME280;6800;50.940;6.940;2023-03-01T05:12:00;102034.25;;;8.91;36.69
13456;BME280;6800;50.940;6.940;2023-03-01T05:16:02;102034.53;;;8.82;36.92
13456;BME280;6800;50.940;6.940;2023-03-01T05:20:04;102030.78;;;8.92;37.39
13456;BME280;6800;50.940;6.940;2023-03-01T05:24:09;102038.28;;;9.03;36.02
13456;BME280;6800;50.940;6.940;2023-03-01T05:28:12;102028.41;;;9.43;36.03
13456;BME280;6800;50.940;6.940;2023-03-01T05:32:14;102031.94;;;9.40;35.52
13456;BME280;6800;50.940;6.940;2023-03-01T05:36:16;102029.91;;;7.92;37.67
13456;BME280;6800;50.940;6.940;2023-03-01T05:40:21;102026.31;;;8.33;38.05
13456;BME280;6800;50.940;6.940;2023-03-01T05:44:24;102027.41;;;9.18;35.83
13456;BME280;6800;50.940;6.940;2023-03-01T05:48:26;102031.66;;;8.60;36.76
13456;BME280;6800;50.940;6.940;2023-03-01T05:52:27;102038.53;;;8.94;36.87
13456;BME280;6800;50.940;6.940;2023-03-01T05:56:35;102031.28;;;9.34;35.51
13456;BME280;6800;50.940;6.940;2023-03-01T06:00:41;102027.44;;;8.87;36.53
13456;BME280;6800;50.940;6.940;2023-03-01T06:04:43;102028.94;;;8.31;37.20
13456;BME280;6800;50.940;6.940;2023-03-01T06:08:44;102016.53;;;8.42;37.42
13456;BME280;6800;50.940;6.940;2023-03-01T06:12:46;102020.19;;;8.98;35.83
13456;BME280;6800;50.940;6.940;2023-03-01T06:16:47;102014.50;;;8.20;37.69
13456;BME280;6800;50.940;6.940;2023-03-01T06:20:55;102020.69;;;9.11;36.56
13456;BME280;6800;50.940;6.940;2023-03-01T06:24:56;102018.88;;;8.18;37.35
13456;BME280;6800;50.940;6.940;2023-03-01T06:28:58;102017.13;;;8.84;36.78
13456;BME280;6800;50.940;6.940;2023-03-01T06:33:01;102019.75;;;8.50;37.66
13456;BME280;6800;50.940;6.940;2023-03-01T06:37:04;102020.00;;;9.33;36.40
13456;BME280;6800;50.940;6.940;2023-03-01T06:41:06;102023.34;;;9.08;36.57
13456;BME280;6800;50.940;6.940;2023-03-01T06:45:09;102023.34;;;8.48;37.37
13456;BME280;6800;50.940;6.940;2023-03-01T06:49:10;102022.31;;;8.53;36.87
13456;BME280;6800;50.940;6.940;2023-03-01T06:53:12;102012.25;;;9.01;36.76
13456;BME280;6800;50.940;6.940;2023-03-01T06:57:13;102006.47;;;9.22;36.29
13456;BME280;6800;50.940;6.940;2023-03-01T07:01:15;102013.09;;;9.32;36.21
13456;BME280;6800;50.940;6.940;2023-03-01T07:05:16;102020.09;;;8.38;37.37
13456;BME280;6800;50.940;6.940;2023-03-01T07:09:18;102012.53;;;9.21;36.36
13456;BME280;6800;50.940;6.940;2023-03-01T07:13:23;102013.56;;;8.56;37.06
13456;BME280;6800;50.940;6.940;2023-03-01T07:17:25;102007.75;;;9.37;35.82
13456;BME280;6800;50.940;6.940;2023-03-01T07:21:26;102010.63;;;9.83;35.49
13456;BME280;6800;50.940;6.940;2023-03-01T07:25:27;101995.41;;;9.42;36.12
13456;BME280;6800;50.940;6.940;2023-03-01T07:29:29;101997.41;;;9.62;34.85
13456;BME280;6800;50.940;6.940;2023-03-01T07:33:31;101999.59;;;9.48;34.75
13456;BME280;6800;50.940;6.940;2023-03-01T07:37:32;101990.53;;;10.13;33.79
13456;BME280;6800;50.940;6.940;2023-03-01T07:41:34;101997.72;;;9.79;34.23
13456;BME280;6800;50.940;6.940;2023-03-01T07:45:35;102002.88;;;9.53;35.08
13456;BME280;6800;50.940;6.940;2023-03-01T07:49:37;102005.38;;;9.00;35.94
13456;BME280;6800;50.940;6.940;2023-03-01T07:53:38;102011.91;;;8.84;36.72
13456;BME280;6800;50.940;6.940;2023-03-01T07:57:40;102000.09;;;8.73;36.67
13456;BME280;6800;50.940;6.940;2023-03-01T08:01:41;101987.13;;;9.29;35.81
13456;BME280;6800;50.940;6.940;2023-03-01T08:05:43;101983.09;;;9.75;34.84
13456;BME280;6800;50.940;6.940;2023-03-01T08:09:44;101984.56;;;10.34;34.15
13456;BME280;6800;50.940;6.940;2023-03-01T08:13:47;101978.28;;;10.87;33.11
13456;BME280;6800;50.940;6.940;2023-03-01T08:17:53;101976.31;;;11.16;32.41
13456;BME280;6800;50.940;6.940;2023-03-01T08:21:54;101966.06;;;11.54;31.44
13456;BME280;6800;50.940;6.940;2023-03-01T08:26:11;101978.50;;;11.26;31.77
13456;BME280;6800;50.940;6.940;2023-03-01T08:30:13;101981.25;;;11.68;31.18
13456;BME280;6800;50.940;6.940;2023-03-01T08:34:16;101980.72;;;12.42;30.76
13456;BME280;6800;50.940;6.940;2023-03-01T08:38:18;101984.31;;;13.71;28.78
13456;BME280;6800;50.940;6.940;2023-03-01T08:42:20;101978.81;;;12.05;30.69
13456;BME280;6800;50.940;6.940;2023-03-01T08:46:21;101974.72;;;12.97;29.59
13456;BME280;6800;50.940;6.940;2023-03-01T08:50:23;101964.03;;;13.39;28.56
13456;BME280;6800;50.940;6.940;2023-03-01T08:54:25;101971.63;;;13.62;29.19
13456;BME280;6800;50.940;6.940;2023-03-01T08:58:26;101964.78;;;14.11;27.48
13456;BME280;6800;50.940;6.940;2023-03-01T09:02:28;101963.78;;;14.48;27.77
13456;BME280;6800;50.940;6.940;2023-03-01T09:06:31;101966.38;;;16.33;25.08
13456;BME280;6800;50.940;6.940;2023-03-01T09:10:37;101953.38;;;16.60;24.28
13456;BME280;6800;50.940;6.940;2023-03-01T09:14:39;101956.44;;;15.03;26.02
13456;BME280;6800;50.940;6.940;2023-03-01T09:18:42;101949.72;;;15.44;25.58
13456;BME280;6800;50.940;6.940;2023-03-01T09:22:43;101949.63;;;15.61;25.40
13456;BME280;6800;50.940;6.940;2023-03-01T09:26:46;101946.28;;;15.43;25.88
13456;BME280;6800;50.940;6.940;2023-03-01T09:31:10;101942.59;;;15.61;25.59
13456;BME280;6800;50.940;6.940;2023-03-01T09:35:16;101931.16;;;17.72;22.90
13456;BME280;6800;50.940;6.940;2023-03-01T09:39:18;101929.66;;;16.60;23.24
13456;BME280;6800;50.940;6.940;2023-03-01T09:43:45;101918.72;;;17.74;22.68
13456;BME280;6800;50.940;6.940;2023-03-01T09:47:48;101930.19;;;13.69;27.70
13456;BME280;6800;50.940;6.940;2023-03-01T09:51:56;101926.91;;;15.13;25.72
13456;BME280;6800;50.940;6.940;2023-03-01T09:56:12;101919.69;;;15.32;25.29
13456;BME280;6800;50.940;6.940;2023-03-01T10:09:13;101896.16;;;21.74;18.46
13456;BME280;6800;50.940;6.940;2023-03-01T10:13:25;101898.72;;;19.20;20.56
13456;BME280;6800;50.940;6.940;2023-03-01T10:18:30;101894.78;;;19.84;19.33
13456;BME280;6800;50.940;6.940;2023-03-01T10:22:21;101897.72;;;16.51;23.24
13456;BME280;6800;50.940;6.940;2023-03-01T10:26:41;101880.22;;;19.89;19.83
13456;BME280;6800;50.940;6.940;2023-03-01T10:30:45;101875.50;;;18.13;21.44
13456;BME280;6800;50.940;6.940;2023-03-01T10:34:47;101877.84;;;15.12;25.47
13456;BME280;6800;50.940;6.940;2023-03-01T10:42:58;101878.75;;;17.40;23.12
13456;BME280;6800;50.940;6.940;2023-03-01T10:47:00;101862.41;;;15.97;23.27
13456;BME280;6800;50.940;6.940;2023-03-01T10:51:06;101850.66;;;21.68;18.67
13456;BME280;6800;50.940;6.940;2023-03-01T10:55:47;101845.81;;;22.24;17.93
13456;BME280;6800;50.940;6.940;2023-03-01T11:04:22;101842.38;;;19.76;19.59
13456;BME280;6800;50.940;6.940;2023-03-01T11:08:55;101811.84;;;22.86;17.32
13456;BME280;6800;50.940;6.940;2023-03-01T11:13:13;101823.28;;;21.04;18.77
13456;BME280;6800;50.940;6.940;2023-03-01T11:17:21;101804.69;;;24.19;16.37
13456;BME280;6800;50.940;6.940;2023-03-01T11:21:26;101799.91;;;25.30;14.77
13456;BME280;6800;50.940;6.940;2023-03-01T11:25:34;101786.97;;;23.81;16.05
13456;BME280;6800;50.940;6.940;2023-03-01T11:29:40;101769.28;;;27.01;14.10
13456;BME280;6800;50.940;6.940;2023-03-01T11:38:13;101797.81;;;19.81;20.44
13456;BME280;6800;50.940;6.940;2023-03-01T11:46:50;101776.00;;;18.74;21.23
13456;BME280;6800;50.940;6.940;2023-03-01T11:50:54;101762.91;;;23.45;16.71
13456;BME280;6800;50.940;6.940;2023-03-01T12:03:33;101743.50;;;20.20;18.96
13456;BME280;6800;50.940;6.940;2023-03-01T12:21:14;101715.91;;;20.65;19.24
13456;BME280;6800;50.940;6.940;2023-03-01T12:43:02;101706.88;;;16.26;24.36
13456;BME280;6800;50.940;6.940;2023-03-01T12:47:17;101717.56;;;15.97;24.14
13456;BME280;6800;50.940;6.940;2023-03-01T12:51:24;101710.31;;;15.14;25.40
13456;BME280;6800;50.940;6.940;2023-03-01T12:55:37;101701.75;;;14.81;25.48
13456;BME280;6800;50.940;6.940;2023-03-01T12:59:47;101690.91;;;16.42;24.13
13456;BME280;6800;50.940;6.940;2023-03-01T13:16:57;101661.50;;;17.64;22.64
13456;BME280;6800;50.940;6.940;2023-03-01T13:21:00;101653.22;;;17.56;22.61
13456;BME280;6800;50.940;6.940;2023-03-01T13:25:12;101656.16;;;17.01;23.26
13456;BME280;6800;50.940;6.940;2023-03-01T13:29:26;101653.72;;;17.86;22.71
13456;BME280;6800;50.940;6.940;2023-03-01T13:37:33;101650.78;;;15.84;24.42
13456;BME280;6800;50.940;6.940;2023-03-01T13:45:41;101641.69;;;16.42;23.62
13456;BME280;6800;50.940;6.940;2023-03-01T13:49:53;101635.25;;;17.74;22.44
13456;BME280;6800;50.940;6.940;2023-03-01T13:53:58;101641.72;;;16.02;24.08
13456;BME280;6800;50.940;6.940;2023-03-01T13:58:04;101624.69;;;16.07;23.83
13456;BME280;6800;50.940;6.940;2023-03-01T14:02:16;101619.09;;;14.87;24.64
13456;BME280;6800;50.940;6.940;2023-03-01T14:06:22;101625.22;;;16.39;23.50
13456;BME280;6800;50.940;6.940;2023-03-01T14:10:31;101613.09;;;16.76;23.26
13456;BME280;6800;50.940;6.940;2023-03-01T14:18:54;101610.16;;;17.92;21.90
13456;BME280;6800;50.940;6.940;2023-03-01T14:22:58;101607.91;;;16.35;23.55
13456;BME280;6800;50.940;6.940;2023-03-01T14:27:01;101597.81;;;16.68;23.20
13456;BME280;6800;50.940;6.940;2023-03-01T14:31:03;101573.75;;;18.08;21.50
13456;BME280;6800;50.940;6.940;2023-03-01T14:35:19;101575.00;;;16.67;22.54
13456;BME280;6800;50.940;6.940;2023-03-01T14:39:25;101566.28;;;17.04;23.44
13456;BME280;6800;50.940;6.940;2023-03-01T14:43:28;101552.78;;;16.96;24.01
13456;BME280;6800;50.940;6.940;2023-03-01T14:47:35;101557.81;;;16.62;24.86
13456;BME280;6800;50.940;6.940;2023-03-01T14:51:41;101556.25;;;15.67;26.29
13456;BME280;6800;50.940;6.940;2023-03-01T14:55:46;101565.72;;;14.70;27.60
13456;BME280;6800;50.940;6.940;2023-03-01T14:59:49;101553.91;;;15.89;26.57
13456;BME280;6800;50.940;6.940;2023-03-01T15:03:54;101549.59;;;15.47;27.10
13456;BME280;6800;50.940;6.940;2023-03-01T15:07:58;101549.25;;;14.23;28.99
13456;BME280;6800;50.940;6.940;2023-03-01T15:12:00;101551.22;;;15.07;27.86
13456;BME280;6800;50.940;6.940;2023-03-01T15:16:09;101549.78;;;15.85;27.25
13456;BME280;6800;50.940;6.940;2023-03-01T15:20:18;101547.78;;;15.61;27.93
13456;BME280;6800;50.940;6.940;2023-03-01T15:24:25;101541.13;;;16.49;26.62
13456;BME280;6800;50.940;6.940;2023-03-01T15:28:32;101533.88;;;16.65;25.75
13456;BME280;6800;50.940;6.940;2023-03-01T15:32:35;101544.06;;;15.09;27.74
13456;BME280;6800;50.940;6.940;2023-03-01T15:36:45;101533.28;;;15.14;27.87
13456;BME280;6800;50.940;6.940;2023-03-01T15:40:51;101537.69;;;14.12;29.41
13456;BME280;6800;50.940;6.940;2023-03-01T15:49:41;101524.75;;;15.65;27.06
13456;BME280;6800;50.940;6.940;2023-03-01T15:53:55;101523.19;;;14.20;28.92
13456;BME280;6800;50.940;6.940;2023-03-01T15:58:22;101520.06;;;15.42;27.11
13456;BME280;6800;50.940;6.940;2023-03-01T16:02:23;101511.41;;;15.68;26.56
13456;BME280;6800;50.940;6.940;2023-03-01T16:06:25;101520.69;;;14.76;27.58
13456;BME280;6800;50.940;6.940;2023-03-01T16:10:27;101516.91;;;16.04;26.27
13456;BME280;6800;50.940;6.940;2023-03-01T16:14:29;101509.63;;;16.08;26.32
13456;BME280;6800;50.940;6.940;2023-03-01T16:18:30;101506.50;;;15.21;27.70
13456;BME280;6800;50.940;6.940;2023-03-01T16:22:32;101501.00;;;14.69;28.15
13456;BME280;6800;50.940;6.940;2023-03-01T16:26:33;101500.22;;;15.91;26.46
13456;BME280;6800;50.940;6.940;2023-03-01T16:30:38;101515.13;;;15.37;27.12
13456;BME280;6800;50.940;6.940;2023-03-01T16:34:40;101507.41;;;16.02;26.49
13456;BME280;6800;50.940;6.940;2023-03-01T16:38:42;101518.09;;;15.59;26.71
13456;BME280;6800;50.940;6.940;2023-03-01T16:42:43;101528.50;;;15.61;26.96
13456;BME280;6800;50.940;6.940;2023-03-01T16:46:45;101523.97;;;14.94;27.82
13456;BME280;6800;50.940;6.940;2023-03-01T16:50:55;101523.13;;;14.94;27.41
13456;BME280;6800;50.940;6.940;2023-03-01T16:54:56;101526.16;;;14.73;27.30
13456;BME280;6800;50.940;6.940;2023-03-01T16:58:58;101533.31;;;13.96;28.63
13456;BME280;6800;50.940;6.940;2023-03-01T17:03:01;101533.19;;;15.43;26.86
13456;BME280;6800;50.940;6.940;2023-03-01T17:07:03;101530.34;;;15.32;26.69
13456;BME280;6800;50.940;6.940;2023-03-01T17:11:13;101531.81;;;15.91;26.03
13456;BME280;6800;50.940;6.940;2023-03-01T17:15:15;101524.78;;;14.23;27.83
13456;BME280;6800;50.940;6.940;2023-03-01T17:19:16;101538.00;;;14.51;27.56
13456;BME280;6800;50.940;6.940;2023-03-01T17:23:19;101543.28;;;14.05;28.07
13456;BME280;6800;50.940;6.940;2023-03-01T17:27:20;101534.69;;;14.77;27.34
13456;BME280;6800;50.940;6.940;2023-03-01T17:31:23;101544.31;;;13.87;28.41
13456;BME280;6800;50.940;6.940;2023-03-01T17:35:25;101556.41;;;14.05;27.73
13456;BME280;6800;50.940;6.940;2023-03-01T17:39:26;101558.13;;;14.66;27.73
13456;BME280;6800;50.940;6.940;2023-03-01T17:43:32;101554.00;;;14.32;27.89
13456;BME280;6800;50.940;6.940;2023-03-01T17:47:35;101565.22;;;13.26;29.58
13456;BME280;6800;50.940;6.940;2023-03-01T17:51:36;101566.13;;;14.35;28.42
13456;BME280;6800;50.940;6.940;2023-03-01T17:55:40;101567.69;;;13.76;28.95
13456;BME280;6800;50.940;6.940;2023-03-01T17:59:41;101555.16;;;13.66;28.71
13456;BME280;6800;50.940;6.940;2023-03-01T18:03:43;101569.41;;;13.46;29.17
13456;BME280;6800;50.940;6.940;2023-03-01T18:07:47;101559.41;;;13.99;28.53
13456;BME280;6800;50.940;6.940;2023-03-01T18:11:50;101563.78;;;13.99;28.51
13456;BME280;6800;50.940;6.940;2023-03-01T18:15:51;101570.75;;;13.69;28.99
13456;BME280;6800;50.940;6.940;2023-03-01T18:19:53;101571.75;;;13.35;29.27
13456;BME280;6800;50.940;6.940;2023-03-01T18:23:56;101568.59;;;14.52;27.48
13456;BME280;6800;50.940;6.940;2023-03-01T18:27:59;101571.31;;;14.94;26.84
13456;BME280;6800;50.940;6.940;2023-03-01T18:32:01;101570.66;;;13.86;28.82
13456;BME280;6800;50.940;6.940;2023-03-01T18:36:04;101568.69;;;14.21;27.78
13456;BME280;6800;50.940;6.940;2023-03-01T18:40:06;101554.00;;;14.32;28.10
13456;BME280;6800;50.940;6.940;2023-03-01T18:44:08;101559.53;;;14.12;28.22
13456;BME280;6800;50.940;6.940;2023-03-01T18:48:11;101558.09;;;13.13;30.01
13456;BME280;6800;50.940;6.940;2023-03-01T18:52:14;101555.66;;;14.03;28.69
13456;BME280;6800;50.940;6.940;2023-03-01T18:56:16;101556.88;;;13.82;29.00
13456;BME280;6800;50.940;6.940;2023-03-01T19:00:18;101561.16;;;13.21;29.39
13456;BME280;6800;50.940;6.940;2023-03-01T19:04:19;101561.25;;;14.43;28.24
13456;BME280;6800;50.940;6.940;2023-03-01T19:08:21;101561.66;;;12.95;30.24
13456;BME280;6800;50.940;6.940;2023-03-01T19:12:23;101562.97;;;13.67;29.22
13456;BME280;6800;50.940;6.940;2023-03-01T19:16:26;101566.94;;;13.74;29.03
13456;BME280;6800;50.940;6.940;2023-03-01T19:20:28;101564.25;;;14.37;28.07
13456;BME280;6800;50.940;6.940;2023-03-01T19:24:30;101563.66;;;13.71;28.80
13456;BME280;6800;50.940;6.940;2023-03-01T19:28:33;101557.22;;;14.22;28.31
13456;BME280;6800;50.940;6.940;2023-03-01T19:32:36;101546.78;;;13.90;28.93
13456;BME280;6800;50.940;6.940;2023-03-01T19:36:41;101554.16;;;13.04;30.12
13456;BME280;6800;50.940;6.940;2023-03-01T19:40:43;101541.38;;;13.78;29.45
13456;BME280;6800;50.940;6.940;2023-03-01T19:44:45;101542.06;;;14.27;28.39
13456;BME280;6800;50.940;6.940;2023-03-01T19:48:46;101539.06;;;14.03;28.72
13456;BME280;6800;50.940;6.940;2023-03-01T19:52:50;101536.72;;;13.52;29.19
13456;BME280;6800;50.940;6.940;2023-03-01T19:56:52;101536.13;;;13.47;29.38
13456;BME280;6800;50.940;6.940;2023-03-01T20:00:56;101539.59;;;13.16;29.88
13456;BME280;6800;50.940;6.940;2023-03-01T20:05:01;101529.88;;;13.01;29.75
13456;BME280;6800;50.940;6.940;2023-03-01T20:09:03;101525.81;;;13.28;29.72
13456;BME280;6800;50.940;6.940;2023-03-01T20:13:19;101534.00;;;13.53;28.64
13456;BME280;6800;50.940;6.940;2023-03-01T20:17:21;101545.94;;;13.74;28.60
13456;BME280;6800;50.940;6.940;2023-03-01T20:21:23;101533.50;;;13.47;29.51
13456;BME280;6800;50.940;6.940;2023-03-01T20:25:25;101537.59;;;13.52;28.80
13456;BME280;6800;50.940;6.940;2023-03-01T20:29:26;101538.66;;;13.79;28.88
13456;BME280;6800;50.940;6.940;2023-03-01T20:33:28;101535.03;;;13.82;28.62
13456;BME280;6800;50.940;6.940;2023-03-01T20:37:29;101536.72;;;12.71;29.92
13456;BME280;6800;50.940;6.940;2023-03-01T20:41:30;101531.41;;;13.53;28.90
13456;BME280;6800;50.940;6.940;2023-03-01T20:45:32;101537.66;;;13.97;27.95
13456;BME280;6800;50.940;6.940;2023-03-01T20:49:33;101529.72;;;13.52;28.85
13456;BME280;6800;50.940;6.940;2023-03-01T20:53:35;101530.69;;;13.96;28.37
13456;BME280;6800;50.940;6.940;2023-03-01T20:57:37;101533.59;;;12.97;29.49
13456;BME280;6800;50.940;6.940;2023-03-01T21:01:38;101534.88;;;13.38;28.75
13456;BME280;6800;50.940;6.940;2023-03-01T21:05:40;101542.75;;;13.38;29.19
13456;BME280;6800;50.940;6.940;2023-03-01T21:09:41;101544.31;;;14.03;27.91
13456;BME280;6800;50.940;6.940;2023-03-01T21:13:44;101547.91;;;13.86;28.47
13456;BME280;6800;50.940;6.940;2023-03-01T21:17:46;101547.19;;;13.83;28.18
13456;BME280;6800;50.940;6.940;2023-03-01T21:21:48;101551.53;;;13.68;28.85
13456;BME280;6800;50.940;6.940;2023-03-01T21:26:09;101568.69;;;13.27;29.64
13456;BME280;6800;50.940;6.940;2023-03-01T21:30:12;101552.03;;;13.75;28.84
13456;BME280;6800;50.940;6.940;2023-03-01T21:34:13;101549.09;;;13.50;29.06
13456;BME280;6800;50.940;6.940;2023-03-01T21:38:14;101553.38;;;13.19;29.44
13456;BME280;6800;50.940;6.940;2023-03-01T21:42:17;101547.25;;;12.86;29.67
13456;BME280;6800;50.940;6.940;2023-03-01T21:46:21;101555.31;;;13.16;29.28
13456;BME280;6800;50.940;6.940;2023-03-01T21:50:23;101551.38;;;13.71;28.28
13456;BME280;6800;50.940;6.940;2023-03-01T21:54:24;101543.22;;;12.96;29.39
13456;BME280;6800;50.940;6.940;2023-03-01T21:58:27;101548.97;;;13.20;29.38
13456;BME280;6800;50.940;6.940;2023-03-01T22:02:29;101557.66;;;13.05;29.95
13456;BME280;6800;50.940;6.940;2023-03-01T22:06:35;101553.59;;;13.15;29.84
13456;BME280;6800;50.940;6.940;2023-03-01T22:10:40;101546.03;;;13.57;29.62
13456;BME280;6800;50.940;6.940;2023-03-01T22:14:46;101538.72;;;13.15;29.96
13456;BME280;6800;50.940;6.940;2023-03-01T22:18:53;101539.53;;;13.49;28.85
13456;BME280;6800;50.940;6.940;2023-03-01T22:22:54;101534.09;;;13.36;29.52
13456;BME280;6800;50.940;6.940;2023-03-01T22:26:58;101548.88;;;11.49;32.44
13456;BME280;6800;50.940;6.940;2023-03-01T22:31:03;101534.97;;;11.67;32.15
13456;BME280;6800;50.940;6.940;2023-03-01T22:35:05;101535.50;;;12.09;31.62
13456;BME280;6800;50.940;6.940;2023-03-01T22:39:07;101530.44;;;12.06;31.22
13456;BME280;6800;50.940;6.940;2023-03-01T22:43:11;101533.88;;;12.75;31.03
13456;BME280;6800;50.940;6.940;2023-03-01T22:47:12;101534.06;;;12.04;31.36
13456;BME280;6800;50.940;6.940;2023-03-01T22:51:20;101530.97;;;12.47;30.69
13456;BME280;6800;50.940;6.940;2023-03-01T22:55:22;101527.78;;;12.75;30.39
13456;BME280;6800;50.940;6.940;2023-03-01T22:59:23;101528.59;;;12.25;30.25
13456;BME280;6800;50.940;6.940;2023-03-01T23:03:25;101527.53;;;11.39;31.97
13456;BME280;6800;50.940;6.940;2023-03-01T23:07:26;101522.97;;;12.50;30.01
13456;BME280;6800;50.940;6.940;2023-03-01T23:11:27;101516.81;;;12.34;30.73
13456;BME280;6800;50.940;6.940;2023-03-01T23:15:29;101520.00;;;12.23;30.89
13456;BME280;6800;50.940;6.940;2023-03-01T23:19:31;101517.38;;;12.40;30.53
13456;BME280;6800;50.940;6.940;2023-03-01T23:23:33;101525.50;;;12.34;30.66